Weather History for KFME - March, 2014

Change the Weather History Date:

Monday, March 10, 2014

  Actual Average (KBWI) Record (KBWI)
Temperature  
Mean Temperature 46 °F 42 °F  
Max Temperature 59 °F 52 °F 77 °F (2006)
Min Temperature 32 °F 32 °F 11 °F (1996)
Degree Days  
Heating Degree Days 20 23  
Month to date heating degree days 247  
Since 1 July heating degree days 3842  
Cooling Degree Days 0 0  
Month to date cooling degree days 0  
Year to date cooling degree days 0  
Moisture  
Dew Point 28 °F    
Average Humidity 62    
Maximum Humidity 87    
Minimum Humidity 29    
Precipitation  
Precipitation 0.00 in 0.12 in 2.61 in (2011)
Month to date precipitation 1.14  
Year to date precipitation 7.09  
Snow  
Snow 0.00 in 0.10 in 8.00 in (1892)
Month to date snowfall 1.1  
Since 1 July snowfall 19.3  
Snow Depth -    
Sea Level Pressure  
Sea Level Pressure 29.84 in    
Wind  
Wind Speed 3 mph (SSW)    
Max Wind Speed 15 mph    
Max Gust Speed 21 mph    
Visibility 10 miles    
Events      
T = Trace of Precipitation, MM = Missing Value Source: NWS Daily Summary

Daily Weather History Graph

Daily Weather History Graph

Search for Another Location

Airport or City:

Trip Planner

Search our weather history database for the weather conditions in past years. The results will help you decide how hot, cold, wet, or windy it might be!

Date:

Astronomy

Mar. 10, 2014 Rise Set
Actual Time 7:26 AM EDT 7:08 PM EDT
Civil Twilight 6:59 AM EDT 7:35 PM EDT
Nautical Twilight 6:28 AM EDT 8:06 PM EDT
Astronomical Twilight 5:57 AM EDT 8:37 PM EDT
Moon 1:52 PM EDT (3/10) 3:34 AM EDT (3/10)
Length of Visible Light 12h 36m
Length of Day
11h 42m
Waxing Gibbous, 70% of the Moon is Illuminated
Mar 10
Waxing Gibbous
Mar 16
Full
Mar 23
Last Quarter
Mar 30
New
Apr 7
First Quarter

Hourly Weather History & Observations

Time (EDT) Temp. Windchill Dew Point Humidity Pressure Visibility Wind Dir Wind Speed Gust Speed Precip Events Conditions
12:09 AM 32.0 °F - 26.6 °F 80% 30.03 in 10.0 mi Calm Calm - N/A   Clear
1:09 AM 32.0 °F - 26.6 °F 80% 30.03 in 10.0 mi Calm Calm - N/A   Clear
1:27 AM 32.0 °F - 26.6 °F 80% 30.02 in 10.0 mi Calm Calm - N/A   Clear
1:48 AM 32.0 °F - 26.6 °F 80% 30.01 in 10.0 mi Calm Calm - N/A   Clear
2:09 AM 32.0 °F 28.7 °F 26.6 °F 80% 30.00 in 10.0 mi South 3.5 mph - N/A   Clear
2:27 AM 32.0 °F - 26.6 °F 80% 30.00 in 10.0 mi Calm Calm - N/A   Clear
2:48 AM 32.0 °F 28.7 °F 26.6 °F 80% 29.98 in 10.0 mi South 3.5 mph - N/A   Clear
3:09 AM 32.0 °F - 26.6 °F 80% 29.97 in 10.0 mi Calm Calm - N/A   Clear
3:27 AM 32.0 °F 28.7 °F 26.6 °F 80% 29.96 in 10.0 mi SSW 3.5 mph - N/A   Clear
3:48 AM 32.0 °F 27.5 °F 26.6 °F 80% 29.95 in 10.0 mi SSW 4.6 mph - N/A   Clear
4:09 AM 32.0 °F 27.5 °F 28.4 °F 87% 29.95 in 10.0 mi SSW 4.6 mph - N/A   Clear
4:30 AM 32.0 °F 28.7 °F 28.4 °F 87% 29.95 in 10.0 mi SSW 3.5 mph - N/A   Clear
4:48 AM 32.0 °F 28.7 °F 28.4 °F 87% 29.95 in 10.0 mi SSW 3.5 mph - N/A   Clear
5:09 AM 32.0 °F - 28.4 °F 87% 29.94 in 10.0 mi Calm Calm - N/A   Clear
5:30 AM 32.0 °F 28.7 °F 28.4 °F 87% 29.94 in 10.0 mi SW 3.5 mph - N/A   Clear
5:48 AM 32.0 °F 28.7 °F 28.4 °F 87% 29.94 in 10.0 mi SSW 3.5 mph - N/A   Clear
6:09 AM 33.8 °F - 28.4 °F 81% 29.94 in 10.0 mi Calm Calm - N/A   Clear
6:30 AM 33.8 °F 30.8 °F 28.4 °F 81% 29.93 in 10.0 mi SSW 3.5 mph - N/A   Clear
6:48 AM 33.8 °F 30.8 °F 28.4 °F 81% 29.93 in 10.0 mi SW 3.5 mph - N/A   Clear
7:09 AM 33.8 °F 30.8 °F 28.4 °F 81% 29.92 in 10.0 mi SSW 3.5 mph - N/A   Clear
7:30 AM 33.8 °F 30.8 °F 28.4 °F 81% 29.92 in 10.0 mi WSW 3.5 mph - N/A   Clear
7:48 AM 33.8 °F - 28.4 °F 81% 29.92 in 10.0 mi Calm Calm - N/A   Clear
8:09 AM 35.6 °F - 28.4 °F 75% 29.93 in 10.0 mi Calm Calm - N/A   Clear
8:30 AM 35.6 °F 32.8 °F 30.2 °F 81% 29.92 in 10.0 mi SSW 3.5 mph - N/A   Clear
8:48 AM 37.4 °F 34.9 °F 30.2 °F 75% 29.92 in 10.0 mi SW 3.5 mph - N/A   Clear
9:09 AM 41.0 °F 39.0 °F 28.4 °F 61% 29.92 in 10.0 mi SSW 3.5 mph - N/A   Clear
9:30 AM 41.0 °F 38.0 °F 28.4 °F 61% 29.91 in 10.0 mi SW 4.6 mph - N/A   Scattered Clouds
9:48 AM 42.8 °F 39.3 °F 28.4 °F 57% 29.90 in 10.0 mi SSW 5.8 mph - N/A   Mostly Cloudy
10:09 AM 42.8 °F 40.1 °F 28.4 °F 57% 29.90 in 10.0 mi SSW 4.6 mph - N/A   Overcast
10:48 AM 42.8 °F 40.1 °F 28.4 °F 57% 29.90 in 10.0 mi SSW 4.6 mph - N/A   Scattered Clouds
11:09 AM 42.8 °F 41.1 °F 28.4 °F 57% 29.89 in 10.0 mi SSW 3.5 mph - N/A   Mostly Cloudy
11:30 AM 42.8 °F 39.3 °F 28.4 °F 57% 29.89 in 10.0 mi South 5.8 mph - N/A   Overcast
11:48 AM 42.8 °F 40.1 °F 28.4 °F 57% 29.88 in 10.0 mi SSW 4.6 mph - N/A   Overcast
12:09 PM 44.6 °F 42.2 °F 28.4 °F 53% 29.87 in 10.0 mi SSW 4.6 mph - N/A   Scattered Clouds
12:30 PM 44.6 °F 41.4 °F 28.4 °F 53% 29.86 in 10.0 mi SSW 5.8 mph - N/A   Clear
12:48 PM 46.4 °F 44.3 °F 28.4 °F 50% 29.85 in 10.0 mi SSW 4.6 mph - N/A   Clear
1:09 PM 46.4 °F 43.5 °F 28.4 °F 50% 29.85 in 10.0 mi SSW 5.8 mph - N/A   Clear
1:30 PM 46.4 °F 43.5 °F 30.2 °F 53% 29.84 in 10.0 mi SSW 5.8 mph - N/A   Clear
1:51 PM 48.2 °F - 28.4 °F 46% 29.83 in 10.0 mi South 8.1 mph - N/A   Clear
2:09 PM 51.8 °F - 30.2 °F 44% 29.81 in 10.0 mi South 8.1 mph - N/A   Clear
2:30 PM 53.6 °F - 28.4 °F 38% 29.80 in 10.0 mi SSW 6.9 mph - N/A   Clear
2:51 PM 55.4 °F - 28.4 °F 36% 29.78 in 10.0 mi SW 9.2 mph - N/A   Clear
3:09 PM 55.4 °F - 28.4 °F 36% 29.78 in 10.0 mi SW 10.4 mph - N/A   Clear
3:30 PM 57.2 °F - 28.4 °F 33% 29.77 in 10.0 mi SSW 11.5 mph 16.1 mph N/A   Clear
3:51 PM 57.2 °F - 26.6 °F 31% 29.76 in 10.0 mi SSW 11.5 mph 19.6 mph N/A   Clear
4:09 PM 59.0 °F - 26.6 °F 29% 29.75 in 10.0 mi SSW 10.4 mph 18.4 mph N/A   Scattered Clouds
4:30 PM 59.0 °F - 28.4 °F 31% 29.74 in 10.0 mi SSW 11.5 mph 17.3 mph N/A   Clear
4:51 PM 59.0 °F - 26.6 °F 29% 29.72 in 10.0 mi South 12.7 mph - N/A   Clear
5:09 PM 59.0 °F - 28.4 °F 31% 29.71 in 10.0 mi SSW 10.4 mph 18.4 mph N/A   Clear
5:30 PM 59.0 °F - 26.6 °F 29% 29.70 in 10.0 mi SW 15.0 mph 19.6 mph N/A   Clear
5:51 PM 59.0 °F - 26.6 °F 29% 29.70 in 10.0 mi SW 11.5 mph 20.7 mph N/A   Clear
6:09 PM 59.0 °F - 26.6 °F 29% 29.69 in 10.0 mi SW 8.1 mph - N/A   Clear
6:30 PM 57.2 °F - 26.6 °F 31% 29.69 in 10.0 mi SW 10.4 mph - N/A   Clear
6:51 PM 55.4 °F - 26.6 °F 33% 29.69 in 10.0 mi SW 6.9 mph 16.1 mph N/A   Clear
7:09 PM 53.6 °F - 28.4 °F 38% 29.69 in 10.0 mi SSW 9.2 mph - N/A   Clear
7:30 PM 51.8 °F - 28.4 °F 41% 29.70 in 10.0 mi SSW 4.6 mph - N/A   Clear
7:51 PM 48.2 °F - 28.4 °F 46% 29.70 in 10.0 mi Calm Calm - N/A   Clear
8:09 PM 46.4 °F 44.3 °F 28.4 °F 50% 29.70 in 10.0 mi SSW 4.6 mph - N/A   Clear
8:30 PM 42.8 °F 40.1 °F 30.2 °F 61% 29.70 in 10.0 mi SSW 4.6 mph - N/A   Clear
8:51 PM 42.8 °F - 30.2 °F 61% 29.70 in 10.0 mi Calm Calm - N/A   Clear
9:09 PM 42.8 °F - 30.2 °F 61% 29.70 in 10.0 mi Calm Calm - N/A   Clear
9:30 PM 41.0 °F 39.0 °F 32.0 °F 70% 29.70 in 10.0 mi SSW 3.5 mph - N/A   Clear
9:51 PM 39.2 °F 35.9 °F 32.0 °F 75% 29.70 in 10.0 mi SSW 4.6 mph - N/A   Clear
10:12 PM 37.4 °F - 32.0 °F 81% 29.70 in 10.0 mi Calm Calm - N/A   Clear
10:30 PM 37.4 °F 34.9 °F 32.0 °F 81% 29.69 in 10.0 mi SSW 3.5 mph - N/A   Clear
10:51 PM 37.4 °F - 32.0 °F 81% 29.69 in 10.0 mi Calm Calm - N/A   Clear
11:12 PM 37.4 °F - 32.0 °F 81% 29.69 in 10.0 mi Calm Calm - N/A   Clear
11:30 PM 37.4 °F - 30.2 °F 75% 29.69 in 10.0 mi Calm Calm - N/A   Clear
11:51 PM 37.4 °F - 30.2 °F 75% 29.68 in 10.0 mi Calm Calm - N/A   Clear